sensor_id;sensor_type;location;lat;lon;timestamp;pressure;altitude;pressure_sealevel;temperature;humidity
43878;BME280;29815;48.184;11.268;2023-03-25T00:01:23;95059.72;;;8.07;100.00
43878;BME280;29815;48.184;11.268;2023-03-25T00:03:58;95047.41;;;8.06;100.00
43878;BME280;29815;48.184;11.268;2023-03-25T00:06:28;95044.72;;;8.11;100.00
43878;BME280;29815;48.184;11.268;2023-03-25T00:08:58;95035.34;;;8.14;100.00
43878;BME280;29815;48.184;11.268;2023-03-25T00:11:27;95040.72;;;8.19;100.00
43878;BME280;29815;48.184;11.268;2023-03-25T00:13:57;95031.84;;;8.24;100.00
43878;BME280;29815;48.184;11.268;2023-03-25T00:16:27;95028.09;;;8.25;100.00
43878;BME280;29815;48.184;11.268;2023-03-25T00:18:58;95041.53;;;8.30;100.00
43878;BME280;29815;48.184;11.268;2023-03-25T00:21:29;95026.81;;;8.32;100.00
43878;BME280;29815;48.184;11.268;2023-03-25T00:24:00;95041.53;;;8.30;100.00
43878;BME280;29815;48.184;11.268;2023-03-25T00:26:30;95027.88;;;8.36;100.00
43878;BME280;29815;48.184;11.268;2023-03-25T00:28:59;95024.41;;;8.41;100.00
43878;BME280;29815;48.184;11.268;2023-03-25T00:31:29;95031.91;;;8.39;100.00
43878;BME280;29815;48.184;11.268;2023-03-25T00:34:00;95039.69;;;8.45;100.00
43878;BME280;29815;48.184;11.268;2023-03-25T00:36:29;95042.91;;;8.42;100.00
43878;BME280;29815;48.184;11.268;2023-03-25T00:38:59;95043.41;;;8.49;100.00
43878;BME280;29815;48.184;11.268;2023-03-25T00:41:28;95042.88;;;8.53;100.00
43878;BME280;29815;48.184;11.268;2023-03-25T00:43:59;95045.03;;;8.61;100.00
43878;BME280;29815;48.184;11.268;2023-03-25T00:46:31;95039.41;;;8.62;100.00
43878;BME280;29815;48.184;11.268;2023-03-25T00:49:03;95041.53;;;8.70;100.00
43878;BME280;29815;48.184;11.268;2023-03-25T00:51:32;95051.47;;;8.75;100.00
43878;BME280;29815;48.184;11.268;2023-03-25T00:54:20;95047.41;;;8.82;100.00
43878;BME280;29815;48.184;11.268;2023-03-25T00:56:51;95015.47;;;8.86;100.00
43878;BME280;29815;48.184;11.268;2023-03-25T00:59:21;95052.78;;;8.88;100.00
43878;BME280;29815;48.184;11.268;2023-03-25T01:01:51;95018.41;;;8.95;100.00
43878;BME280;29815;48.184;11.268;2023-03-25T01:04:24;95026.47;;;8.95;100.00
43878;BME280;29815;48.184;11.268;2023-03-25T01:06:54;95022.44;;;8.92;100.00
43878;BME280;29815;48.184;11.268;2023-03-25T01:09:24;95020.56;;;8.98;100.00
43878;BME280;29815;48.184;11.268;2023-03-25T01:11:53;95030.75;;;8.96;100.00
43878;BME280;29815;48.184;11.268;2023-03-25T01:14:23;95026.75;;;8.88;100.00
43878;BME280;29815;48.184;11.268;2023-03-25T01:16:54;95023.53;;;8.86;100.00
43878;BME280;29815;48.184;11.268;2023-03-25T01:19:25;95018.16;;;8.86;100.00
43878;BME280;29815;48.184;11.268;2023-03-25T01:21:55;95020.31;;;8.84;100.00
43878;BME280;29815;48.184;11.268;2023-03-25T01:24:25;95021.38;;;8.88;100.00
43878;BME280;29815;48.184;11.268;2023-03-25T01:26:54;95006.91;;;8.79;100.00
43878;BME280;29815;48.184;11.268;2023-03-25T01:29:24;95010.94;;;8.76;100.00
43878;BME280;29815;48.184;11.268;2023-03-25T01:31:55;95001.84;;;8.72;100.00
43878;BME280;29815;48.184;11.268;2023-03-25T01:34:26;95012.56;;;8.67;100.00
43878;BME280;29815;48.184;11.268;2023-03-25T01:36:55;95013.38;;;8.73;100.00
43878;BME280;29815;48.184;11.268;2023-03-25T01:39:25;95010.44;;;8.69;100.00
43878;BME280;29815;48.184;11.268;2023-03-25T01:41:54;95006.13;;;8.68;100.00
43878;BME280;29815;48.184;11.268;2023-03-25T01:45:21;95006.13;;;8.68;100.00
43878;BME280;29815;48.184;11.268;2023-03-25T01:48:04;95003.72;;;8.67;100.00
43878;BME280;29815;48.184;11.268;2023-03-25T01:50:43;95001.31;;;8.60;100.00
43878;BME280;29815;48.184;11.268;2023-03-25T01:53:14;95010.44;;;8.59;100.00
43878;BME280;29815;48.184;11.268;2023-03-25T01:55:45;94999.44;;;8.61;100.00
43878;BME280;29815;48.184;11.268;2023-03-25T01:58:17;95000.50;;;8.60;100.00
43878;BME280;29815;48.184;11.268;2023-03-25T02:00:48;95002.91;;;8.56;100.00
43878;BME280;29815;48.184;11.268;2023-03-25T02:03:20;94998.09;;;8.58;100.00
43878;BME280;29815;48.184;11.268;2023-03-25T02:05:59;94998.91;;;8.59;100.00
43878;BME280;29815;48.184;11.268;2023-03-25T02:08:33;94992.47;;;8.55;100.00
43878;BME280;29815;48.184;11.268;2023-03-25T02:11:08;94985.22;;;8.55;100.00
43878;BME280;29815;48.184;11.268;2023-03-25T02:13:39;94980.66;;;8.51;100.00
43878;BME280;29815;48.184;11.268;2023-03-25T02:16:25;94981.22;;;8.42;100.00
43878;BME280;29815;48.184;11.268;2023-03-25T02:19:27;94992.75;;;8.38;100.00
43878;BME280;29815;48.184;11.268;2023-03-25T02:26:09;94983.06;;;8.27;100.00
43878;BME280;29815;48.184;11.268;2023-03-25T02:29:10;94974.75;;;8.23;100.00
